createdAt,value
2023-05-03T00:01:00.315Z,5.91
2023-05-03T00:03:28.113Z,5.81
2023-05-03T00:05:56.610Z,5.80
2023-05-03T00:08:25.689Z,5.70
2023-05-03T00:11:00.687Z,5.59
2023-05-03T00:13:29.640Z,5.53
2023-05-03T00:15:57.485Z,5.29
2023-05-03T00:18:25.314Z,5.53
2023-05-03T00:20:55.109Z,5.36
2023-05-03T00:23:22.862Z,5.63
2023-05-03T00:25:54.774Z,5.28
2023-05-03T00:28:23.064Z,5.18
2023-05-03T00:30:51.003Z,4.77
2023-05-03T00:33:19.014Z,4.74
2023-05-03T00:35:46.764Z,4.72
2023-05-03T00:38:15.460Z,4.55
2023-05-03T00:40:43.250Z,4.42
2023-05-03T00:43:14.202Z,4.45
2023-05-03T00:45:42.075Z,4.52
2023-05-03T00:48:10.058Z,4.67
2023-05-03T00:50:38.569Z,4.79
2023-05-03T00:53:07.051Z,4.59
2023-05-03T00:55:35.726Z,4.27
2023-05-03T00:58:03.490Z,3.98
2023-05-03T01:00:33.563Z,3.89
2023-05-03T01:03:01.614Z,3.86
2023-05-03T01:05:34.491Z,3.85
2023-05-03T01:08:10.140Z,3.83
2023-05-03T01:10:45.445Z,3.86
2023-05-03T01:13:23.144Z,3.87
2023-05-03T01:16:01.833Z,3.82
2023-05-03T01:18:32.883Z,3.88
2023-05-03T01:21:02.810Z,4.20
2023-05-03T01:23:35.374Z,3.92
2023-05-03T01:26:17.800Z,3.58
2023-05-03T01:28:45.559Z,3.44
2023-05-03T01:34:39.008Z,3.37
2023-05-03T01:37:11.092Z,3.53
2023-05-03T01:39:46.843Z,3.45
2023-05-03T01:42:16.955Z,3.50
2023-05-03T01:44:45.536Z,3.50
2023-05-03T01:47:15.123Z,3.48
2023-05-03T01:49:43.243Z,3.51
2023-05-03T01:52:11.216Z,3.59
2023-05-03T01:54:39.257Z,3.45
2023-05-03T01:57:07.208Z,3.42
2023-05-03T01:59:36.520Z,3.19
2023-05-03T02:02:04.374Z,3.44
2023-05-03T02:04:32.546Z,3.43
2023-05-03T02:07:00.529Z,3.36
2023-05-03T02:09:28.481Z,3.19
2023-05-03T02:11:56.557Z,3.28
2023-05-03T02:14:24.551Z,3.26
2023-05-03T02:16:55.608Z,3.16
2023-05-03T02:19:23.508Z,3.01
2023-05-03T02:21:51.421Z,3.10
2023-05-03T02:24:19.870Z,3.15
2023-05-03T02:26:49.277Z,3.11
2023-05-03T02:29:17.143Z,2.92
2023-05-03T02:31:46.601Z,2.96
2023-05-03T02:34:15.941Z,2.89
2023-05-03T02:36:44.862Z,2.78
2023-05-03T02:39:13.025Z,2.82
2023-05-03T02:41:40.993Z,2.83
2023-05-03T02:44:09.040Z,2.85
2023-05-03T02:46:36.929Z,2.79
2023-05-03T02:49:04.983Z,2.83
2023-05-03T02:51:35.810Z,2.80
2023-05-03T02:54:03.876Z,2.95
2023-05-03T02:56:33.406Z,2.89
2023-05-03T02:59:01.418Z,2.96
2023-05-03T03:01:29.895Z,2.79
2023-05-03T03:03:58.021Z,2.71
2023-05-03T03:06:26.019Z,2.57
2023-05-03T03:08:55.745Z,2.44
2023-05-03T03:11:24.002Z,2.48
2023-05-03T03:13:51.801Z,2.45
2023-05-03T03:16:19.938Z,2.39
2023-05-03T03:18:47.815Z,2.44
2023-05-03T03:21:16.499Z,2.46
2023-05-03T03:23:44.527Z,2.51
2023-05-03T03:26:13.681Z,2.42
2023-05-03T03:28:41.716Z,2.24
2023-05-03T03:31:12.213Z,2.14
2023-05-03T03:33:41.712Z,2.27
2023-05-03T03:36:14.480Z,2.22
2023-05-03T03:38:45.040Z,2.04
2023-05-03T03:41:14.449Z,2.13
2023-05-03T03:43:42.250Z,2.18
2023-05-03T03:46:15.932Z,2.20
2023-05-03T03:48:43.992Z,2.33
2023-05-03T03:51:12.520Z,2.23
2023-05-03T03:53:46.100Z,2.22
2023-05-03T03:56:16.031Z,2.20
2023-05-03T03:58:44.229Z,2.36
2023-05-03T04:01:13.305Z,2.28
2023-05-03T04:03:41.468Z,2.17
2023-05-03T04:06:09.595Z,2.41
2023-05-03T04:08:37.648Z,2.51
2023-05-03T04:11:11.531Z,2.77
2023-05-03T04:13:45.330Z,2.85
2023-05-03T04:16:13.455Z,3.02
2023-05-03T04:18:42.684Z,3.03
2023-05-03T04:24:50.589Z,3.59
2023-05-03T04:27:19.160Z,3.90
2023-05-03T04:29:49.156Z,4.10
2023-05-03T04:32:23.166Z,4.27
2023-05-03T04:34:54.381Z,4.34
2023-05-03T04:37:24.465Z,4.49
2023-05-03T04:39:52.360Z,4.71
2023-05-03T04:42:21.882Z,5.11
2023-05-03T04:44:51.228Z,5.28
2023-05-03T04:47:19.381Z,5.44
2023-05-03T04:49:47.811Z,5.64
2023-05-03T04:52:15.871Z,6.02
2023-05-03T04:54:43.754Z,5.92
2023-05-03T04:57:12.861Z,6.05
2023-05-03T04:59:41.029Z,6.28
2023-05-03T05:02:11.555Z,6.59
2023-05-03T05:04:39.612Z,6.87
2023-05-03T05:07:07.748Z,6.88
2023-05-03T05:09:35.510Z,6.54
2023-05-03T05:12:04.710Z,6.75
2023-05-03T05:14:40.407Z,6.40
2023-05-03T05:17:10.971Z,6.73
2023-05-03T05:19:39.103Z,6.70
2023-05-03T05:22:07.924Z,6.68
2023-05-03T05:24:50.474Z,6.51
2023-05-03T05:27:19.119Z,6.70
2023-05-03T05:29:47.058Z,6.86
2023-05-03T05:32:16.330Z,6.84
2023-05-03T05:34:45.760Z,6.80
2023-05-03T05:37:17.489Z,6.53
2023-05-03T05:39:46.612Z,6.64
2023-05-03T05:42:15.985Z,6.97
2023-05-03T05:44:44.189Z,7.23
2023-05-03T05:47:12.228Z,7.31
2023-05-03T05:49:42.522Z,7.38
2023-05-03T05:52:11.859Z,7.26
2023-05-03T05:54:40.352Z,7.55
2023-05-03T05:57:08.779Z,7.68
2023-05-03T05:59:37.271Z,7.67
2023-05-03T06:02:05.364Z,7.66
2023-05-03T06:04:33.604Z,7.69
2023-05-03T06:07:03.147Z,7.88
2023-05-03T06:09:31.070Z,7.99
2023-05-03T06:12:03.798Z,7.92
2023-05-03T06:14:33.863Z,8.11
2023-05-03T06:17:02.177Z,8.19
2023-05-03T06:19:29.989Z,8.35
2023-05-03T06:21:58.592Z,8.55
2023-05-03T06:24:31.183Z,9.10
2023-05-03T06:27:00.224Z,8.92
2023-05-03T06:29:28.508Z,9.11
2023-05-03T06:31:57.476Z,9.30
2023-05-03T06:34:26.695Z,9.29
2023-05-03T06:36:56.084Z,9.19
2023-05-03T06:39:24.272Z,9.30
2023-05-03T06:41:53.496Z,9.69
2023-05-03T06:44:21.725Z,9.95
2023-05-03T06:46:49.485Z,9.92
2023-05-03T06:49:17.546Z,9.97
2023-05-03T06:51:45.349Z,9.84
2023-05-03T06:54:13.161Z,9.76
2023-05-03T06:56:40.914Z,9.71
2023-05-03T06:59:10.042Z,9.40
2023-05-03T07:01:37.826Z,9.74
2023-05-03T07:04:06.006Z,10.43
2023-05-03T07:06:44.279Z,9.76
2023-05-03T07:09:28.683Z,9.49
2023-05-03T07:12:03.559Z,9.76
2023-05-03T07:14:32.676Z,9.74
2023-05-03T07:17:00.571Z,10.12
2023-05-03T07:19:28.731Z,10.56
2023-05-03T07:21:56.524Z,10.97
2023-05-03T07:24:24.853Z,10.94
2023-05-03T07:26:52.698Z,11.18
2023-05-03T07:29:20.612Z,11.69
2023-05-03T07:31:51.409Z,11.21
2023-05-03T07:34:20.757Z,10.29
2023-05-03T07:36:48.551Z,10.15
2023-05-03T07:39:17.313Z,11.20
2023-05-03T07:41:45.223Z,12.18
2023-05-03T07:44:12.953Z,12.16
2023-05-03T07:46:40.784Z,10.98
2023-05-03T07:49:09.953Z,10.27
2023-05-03T07:51:38.314Z,10.54
2023-05-03T07:54:06.828Z,11.33
2023-05-03T07:56:34.707Z,11.51
2023-05-03T07:59:09.525Z,11.88
2023-05-03T08:01:38.619Z,11.77
2023-05-03T08:04:06.943Z,12.04
2023-05-03T08:06:38.488Z,11.89
2023-05-03T08:09:06.490Z,11.50
2023-05-03T08:11:34.287Z,11.38
2023-05-03T08:14:02.197Z,11.60
2023-05-03T08:16:30.061Z,11.73
2023-05-03T08:18:58.198Z,11.35
2023-05-03T08:21:26.192Z,11.15
2023-05-03T08:23:56.045Z,11.18
2023-05-03T08:26:24.185Z,11.47
2023-05-03T08:28:52.140Z,11.69
2023-05-03T08:31:20.020Z,11.85
2023-05-03T08:33:47.856Z,12.01
2023-05-03T08:36:15.707Z,12.56
2023-05-03T08:38:43.496Z,13.11
2023-05-03T08:41:22.533Z,13.57
2023-05-03T08:43:53.970Z,13.11
2023-05-03T08:46:22.505Z,12.35
2023-05-03T08:48:52.650Z,12.27
2023-05-03T08:51:21.473Z,12.35
2023-05-03T08:53:50.318Z,12.41
2023-05-03T08:56:26.614Z,12.90
2023-05-03T08:58:54.651Z,13.15
2023-05-03T09:01:22.714Z,12.51
2023-05-03T09:03:52.780Z,12.82
2023-05-03T09:06:22.384Z,12.49
2023-05-03T09:08:50.422Z,13.11
2023-05-03T09:11:23.610Z,13.07
2023-05-03T09:13:53.196Z,13.63
2023-05-03T09:16:27.072Z,13.93
2023-05-03T09:18:59.296Z,13.56
2023-05-03T09:21:27.367Z,13.66
2023-05-03T09:23:55.369Z,12.84
2023-05-03T09:26:37.133Z,12.61
2023-05-03T09:29:05.879Z,12.29
2023-05-03T09:31:36.678Z,13.04
2023-05-03T09:34:23.030Z,12.68
2023-05-03T09:36:50.809Z,12.86
2023-05-03T09:39:19.837Z,13.01
2023-05-03T09:41:48.996Z,13.22
2023-05-03T09:44:17.837Z,13.42
2023-05-03T09:47:04.512Z,13.49
2023-05-03T09:49:32.932Z,13.75
2023-05-03T09:52:02.044Z,14.28
2023-05-03T09:54:31.371Z,14.95
2023-05-03T09:57:02.367Z,14.05
2023-05-03T09:59:30.209Z,13.84
2023-05-03T10:01:59.828Z,13.47
2023-05-03T10:04:29.150Z,13.53
2023-05-03T10:07:00.826Z,13.15
2023-05-03T10:09:33.509Z,13.42
2023-05-03T10:12:08.301Z,13.92
2023-05-03T10:14:36.352Z,13.80
2023-05-03T10:17:08.789Z,14.33
2023-05-03T10:19:41.894Z,14.69
2023-05-03T10:22:11.246Z,14.06
2023-05-03T10:24:57.136Z,14.32
2023-05-03T10:27:27.968Z,14.43
2023-05-03T10:29:56.333Z,14.02
2023-05-03T10:32:35.992Z,13.21
2023-05-03T10:35:06.758Z,13.93
2023-05-03T10:37:36.029Z,14.39
2023-05-03T10:40:09.686Z,14.31
2023-05-03T10:42:39.838Z,14.36
2023-05-03T10:45:09.949Z,14.56
2023-05-03T10:47:38.380Z,14.32
2023-05-03T10:50:28.556Z,13.82
2023-05-03T10:52:56.580Z,13.53
2023-05-03T10:55:25.804Z,13.89
2023-05-03T10:57:59.445Z,14.04
2023-05-03T11:00:34.576Z,13.31
2023-05-03T11:03:28.723Z,13.81
2023-05-03T11:05:57.496Z,14.08
2023-05-03T11:08:27.875Z,14.05
2023-05-03T11:11:00.857Z,13.86
2023-05-03T11:13:30.091Z,13.74
2023-05-03T11:15:58.068Z,13.89
2023-05-03T11:18:27.853Z,14.00
2023-05-03T11:20:56.388Z,13.82
2023-05-03T11:23:26.895Z,13.86
2023-05-03T11:25:54.950Z,14.11
2023-05-03T11:28:22.782Z,14.08
2023-05-03T11:30:52.247Z,14.09
2023-05-03T11:33:20.040Z,14.05
2023-05-03T11:35:49.498Z,14.69
2023-05-03T11:38:17.785Z,14.81
2023-05-03T11:40:45.523Z,14.79
2023-05-03T11:43:13.280Z,14.43
2023-05-03T11:45:45.362Z,14.14
2023-05-03T11:48:15.240Z,14.62
2023-05-03T11:50:47.879Z,14.22
2023-05-03T11:53:16.579Z,14.38
2023-05-03T11:55:47.940Z,14.28
2023-05-03T11:58:17.622Z,14.07
2023-05-03T12:00:47.182Z,14.14
2023-05-03T12:03:20.735Z,14.07
2023-05-03T12:05:49.891Z,14.24
2023-05-03T12:08:21.067Z,14.26
2023-05-03T12:10:53.173Z,14.38
2023-05-03T12:13:30.503Z,14.36
2023-05-03T12:16:11.927Z,14.33
2023-05-03T12:18:51.937Z,14.76
2023-05-03T12:23:55.785Z,14.88
2023-05-03T12:26:25.595Z,14.76
2023-05-03T12:28:55.963Z,14.43
2023-05-03T12:31:24.984Z,14.73
2023-05-03T12:34:20.096Z,14.88
2023-05-03T12:36:48.673Z,14.76
2023-05-03T12:39:17.065Z,14.84
2023-05-03T12:44:17.190Z,14.79
2023-05-03T12:46:46.086Z,14.73
2023-05-03T12:49:19.287Z,14.73
2023-05-03T12:51:57.081Z,14.66
2023-05-03T12:54:33.780Z,14.90
2023-05-03T12:57:08.283Z,15.25
2023-05-03T12:59:42.014Z,14.98
2023-05-03T13:04:58.073Z,14.63
2023-05-03T13:07:31.303Z,14.73
2023-05-03T13:12:33.182Z,14.44
2023-05-03T13:15:03.363Z,14.46
2023-05-03T13:17:32.735Z,14.78
2023-05-03T13:20:02.481Z,15.13
2023-05-03T13:22:31.964Z,14.89
2023-05-03T13:24:59.967Z,14.97
2023-05-03T13:27:27.817Z,14.87
2023-05-03T13:29:55.643Z,14.59
2023-05-03T13:32:24.424Z,14.55
2023-05-03T13:34:52.353Z,14.56
2023-05-03T13:37:21.451Z,14.61
2023-05-03T13:39:49.251Z,14.53
2023-05-03T13:42:17.219Z,14.68
2023-05-03T13:44:46.634Z,15.00
2023-05-03T13:47:14.832Z,14.89
2023-05-03T13:49:42.755Z,14.69
2023-05-03T13:52:12.049Z,14.76
2023-05-03T13:54:42.479Z,14.91
2023-05-03T13:57:10.688Z,14.72
2023-05-03T13:59:38.544Z,15.09
2023-05-03T14:02:06.617Z,14.94
2023-05-03T14:04:34.630Z,14.79
2023-05-03T14:07:03.360Z,14.67
2023-05-03T14:09:31.530Z,14.67
2023-05-03T14:12:01.164Z,14.74
2023-05-03T14:14:29.137Z,14.88
2023-05-03T14:16:56.979Z,14.36
2023-05-03T14:19:24.850Z,14.69
2023-05-03T14:21:59.035Z,14.89
2023-05-03T14:24:28.588Z,14.80
2023-05-03T14:26:56.394Z,14.73
2023-05-03T14:29:25.702Z,14.63
2023-05-03T14:31:53.755Z,14.73
2023-05-03T14:34:21.580Z,15.01
2023-05-03T14:36:49.424Z,15.18
2023-05-03T14:39:17.347Z,15.45
2023-05-03T14:41:45.158Z,15.30
2023-05-03T14:44:13.033Z,15.25
2023-05-03T14:46:42.196Z,14.80
2023-05-03T14:49:09.952Z,14.48
2023-05-03T14:51:37.931Z,14.70
2023-05-03T14:54:05.794Z,14.81
2023-05-03T14:56:33.587Z,15.05
2023-05-03T14:59:01.691Z,14.93
2023-05-03T15:01:29.668Z,14.82
2023-05-03T15:03:58.895Z,14.77
2023-05-03T15:06:28.652Z,14.81
2023-05-03T15:08:56.801Z,14.86
2023-05-03T15:11:24.669Z,15.05
2023-05-03T15:13:52.667Z,14.80
2023-05-03T15:16:20.864Z,14.75
2023-05-03T15:18:49.490Z,14.76
2023-05-03T15:21:20.659Z,14.81
2023-05-03T15:23:49.429Z,14.56
2023-05-03T15:26:17.809Z,14.39
2023-05-03T15:28:45.686Z,14.65
2023-05-03T15:31:13.975Z,14.86
2023-05-03T15:33:43.097Z,14.61
2023-05-03T15:36:12.310Z,14.42
2023-05-03T15:38:42.075Z,14.52
2023-05-03T15:41:09.980Z,14.59
2023-05-03T15:43:37.857Z,14.50
2023-05-03T15:46:06.924Z,14.59
2023-05-03T15:48:34.766Z,14.47
2023-05-03T15:51:02.516Z,14.77
2023-05-03T15:53:30.456Z,14.97
2023-05-03T15:56:00.135Z,14.83
2023-05-03T15:58:30.306Z,14.83
2023-05-03T16:00:59.326Z,14.81
2023-05-03T16:03:28.602Z,14.64
2023-05-03T16:05:57.564Z,14.65
2023-05-03T16:08:26.307Z,14.64
2023-05-03T16:10:54.386Z,14.41
2023-05-03T16:13:23.876Z,14.48
2023-05-03T16:15:52.698Z,14.57
2023-05-03T16:18:20.699Z,14.72
2023-05-03T16:20:48.635Z,14.57
2023-05-03T16:23:17.728Z,14.94
2023-05-03T16:25:45.627Z,14.87
2023-05-03T16:28:13.509Z,14.93
2023-05-03T16:30:43.953Z,14.77
2023-05-03T16:33:12.054Z,14.72
2023-05-03T16:35:40.083Z,14.83
2023-05-03T16:38:08.154Z,14.69
2023-05-03T16:40:38.808Z,14.73
2023-05-03T16:43:08.107Z,14.77
2023-05-03T16:45:37.402Z,14.76
2023-05-03T16:48:08.349Z,14.67
2023-05-03T16:50:38.382Z,14.76
2023-05-03T16:53:06.154Z,14.70
2023-05-03T16:55:33.922Z,14.65
2023-05-03T16:58:01.780Z,14.54
2023-05-03T17:00:30.382Z,14.49
2023-05-03T17:02:58.221Z,14.60
2023-05-03T17:05:32.871Z,14.59
2023-05-03T17:08:01.105Z,14.47
2023-05-03T17:10:29.726Z,14.46
2023-05-03T17:13:01.056Z,14.43
2023-05-03T17:15:28.948Z,14.35
2023-05-03T17:17:56.763Z,14.29
2023-05-03T17:20:24.541Z,14.31
2023-05-03T17:22:54.266Z,14.17
2023-05-03T17:25:22.329Z,14.17
2023-05-03T17:27:51.744Z,14.17
2023-05-03T17:30:21.277Z,14.21
2023-05-03T17:32:50.245Z,14.12
2023-05-03T17:35:18.437Z,14.11
2023-05-03T17:37:46.721Z,14.26
2023-05-03T17:40:16.398Z,14.08
2023-05-03T17:42:44.229Z,13.82
2023-05-03T17:45:13.980Z,13.90
2023-05-03T17:47:43.385Z,13.87
2023-05-03T17:50:13.512Z,13.81
2023-05-03T17:52:41.417Z,13.54
2023-05-03T17:55:10.748Z,13.73
2023-05-03T17:57:40.533Z,13.66
2023-05-03T18:00:11.238Z,13.68
2023-05-03T18:02:39.640Z,13.52
2023-05-03T18:05:07.902Z,13.46
2023-05-03T18:07:36.115Z,13.39
2023-05-03T18:10:04.973Z,13.32
2023-05-03T18:12:33.458Z,13.18
2023-05-03T18:15:02.692Z,13.05
2023-05-03T18:17:30.752Z,12.89
2023-05-03T18:19:58.866Z,12.82
2023-05-03T18:22:27.881Z,12.76
2023-05-03T18:24:56.771Z,12.74
2023-05-03T18:27:24.858Z,12.72
2023-05-03T18:29:52.834Z,12.66
2023-05-03T18:32:23.771Z,12.57
2023-05-03T18:34:51.696Z,12.52
2023-05-03T18:37:20.172Z,12.54
2023-05-03T18:39:48.994Z,12.48
2023-05-03T18:42:19.870Z,12.30
2023-05-03T18:44:47.660Z,12.26
2023-05-03T18:47:18.862Z,12.23
2023-05-03T18:49:52.449Z,12.19
2023-05-03T18:52:20.694Z,12.09
2023-05-03T18:54:49.550Z,12.23
2023-05-03T18:57:17.609Z,12.19
2023-05-03T18:59:59.449Z,12.05
2023-05-03T19:02:34.912Z,11.73
2023-05-03T19:05:04.133Z,11.98
2023-05-03T19:07:32.235Z,11.89
2023-05-03T19:10:00.943Z,11.82
2023-05-03T19:12:29.146Z,11.77
2023-05-03T19:14:57.072Z,11.66
2023-05-03T19:17:24.940Z,11.57
2023-05-03T19:19:52.850Z,11.48
2023-05-03T19:22:22.404Z,11.57
2023-05-03T19:24:50.238Z,11.44
2023-05-03T19:27:18.141Z,11.38
2023-05-03T19:29:46.033Z,11.18
2023-05-03T19:32:14.318Z,11.16
2023-05-03T19:34:42.193Z,11.08
2023-05-03T19:37:09.907Z,10.98
2023-05-03T19:39:39.057Z,10.95
2023-05-03T19:42:07.040Z,10.85
2023-05-03T19:44:34.847Z,10.82
2023-05-03T19:47:02.615Z,10.67
2023-05-03T19:49:30.720Z,10.35
2023-05-03T19:51:59.382Z,10.37
2023-05-03T19:54:27.143Z,10.12
2023-05-03T19:56:56.375Z,9.97
2023-05-03T19:59:24.227Z,9.72
2023-05-03T20:01:52.134Z,9.71
2023-05-03T20:04:19.934Z,9.60
2023-05-03T20:06:47.722Z,9.48
2023-05-03T20:09:15.533Z,9.45
2023-05-03T20:11:43.337Z,9.29
2023-05-03T20:14:12.767Z,9.31
2023-05-03T20:16:45.249Z,9.33
2023-05-03T20:19:13.752Z,9.39
2023-05-03T20:21:42.165Z,9.26
2023-05-03T20:24:11.223Z,9.19
2023-05-03T20:26:39.830Z,9.30
2023-05-03T20:29:07.949Z,9.09
2023-05-03T20:31:37.433Z,9.34
2023-05-03T20:34:05.493Z,9.16
2023-05-03T20:36:33.531Z,8.92
2023-05-03T20:39:01.546Z,9.05
2023-05-03T20:41:29.628Z,8.86
2023-05-03T20:43:59.379Z,8.85
2023-05-03T20:46:27.441Z,8.13
2023-05-03T20:48:57.279Z,8.02
2023-05-03T20:51:25.300Z,7.95
2023-05-03T20:53:53.699Z,7.88
2023-05-03T20:56:21.939Z,7.89
2023-05-03T20:58:49.980Z,8.21
2023-05-03T21:01:19.656Z,8.18
2023-05-03T21:03:47.842Z,8.20
2023-05-03T21:06:17.434Z,8.23
2023-05-03T21:08:45.459Z,8.14
2023-05-03T21:11:13.948Z,7.98
2023-05-03T21:13:42.386Z,7.87
2023-05-03T21:16:10.467Z,8.18
2023-05-03T21:18:38.632Z,7.90
2023-05-03T21:21:06.861Z,7.78
2023-05-03T21:23:36.206Z,7.82
2023-05-03T21:26:04.277Z,7.72
2023-05-03T21:28:32.436Z,7.75
2023-05-03T21:31:01.291Z,7.61
2023-05-03T21:33:29.325Z,7.57
2023-05-03T21:35:57.348Z,7.51
2023-05-03T21:38:25.655Z,7.72
2023-05-03T21:41:02.882Z,7.64
2023-05-03T21:43:30.827Z,7.64
2023-05-03T21:45:58.956Z,7.51
2023-05-03T21:48:27.230Z,7.43
2023-05-03T21:50:55.522Z,7.17
2023-05-03T21:53:23.530Z,6.89
2023-05-03T21:55:51.509Z,6.59
2023-05-03T21:58:20.856Z,6.47
2023-05-03T22:00:49.160Z,6.39
2023-05-03T22:03:17.358Z,6.36
2023-05-03T22:05:47.835Z,6.46
2023-05-03T22:08:18.079Z,6.78
2023-05-03T22:10:46.412Z,6.61
2023-05-03T22:13:14.500Z,6.49
2023-05-03T22:15:44.032Z,6.42
2023-05-03T22:18:13.215Z,6.50
2023-05-03T22:20:41.664Z,6.43
2023-05-03T22:23:09.699Z,6.36
2023-05-03T22:25:37.741Z,6.41
2023-05-03T22:28:05.799Z,6.48
2023-05-03T22:30:33.845Z,6.54
2023-05-03T22:33:03.268Z,6.58
2023-05-03T22:35:31.279Z,6.59
2023-05-03T22:37:59.769Z,6.61
2023-05-03T22:40:27.806Z,6.63
2023-05-03T22:42:56.312Z,6.64
2023-05-03T22:45:24.371Z,6.51
2023-05-03T22:47:52.600Z,5.90
2023-05-03T22:50:22.596Z,5.78
2023-05-03T22:52:50.622Z,5.58
2023-05-03T22:55:18.834Z,5.94
2023-05-03T22:57:46.834Z,5.99
2023-05-03T23:00:16.605Z,5.89
2023-05-03T23:02:44.781Z,6.26
2023-05-03T23:05:12.928Z,6.09
2023-05-03T23:07:42.678Z,6.10
2023-05-03T23:10:11.612Z,6.04
2023-05-03T23:12:39.738Z,5.94
2023-05-03T23:15:08.707Z,5.63
2023-05-03T23:17:36.773Z,5.86
2023-05-03T23:20:06.425Z,5.80
2023-05-03T23:22:34.813Z,5.72
2023-05-03T23:25:05.037Z,5.70
2023-05-03T23:27:33.265Z,5.46
2023-05-03T23:30:01.840Z,5.55
2023-05-03T23:32:30.571Z,5.68
2023-05-03T23:34:59.117Z,5.45
2023-05-03T23:37:27.181Z,5.64
2023-05-03T23:39:55.897Z,5.54
2023-05-03T23:42:25.246Z,5.37
2023-05-03T23:44:55.755Z,5.31
2023-05-03T23:47:24.298Z,5.41
2023-05-03T23:49:52.577Z,5.32
2023-05-03T23:52:20.858Z,5.66
2023-05-03T23:54:48.923Z,5.69
2023-05-03T23:57:17.048Z,5.43
2023-05-03T23:59:46.619Z,5.23
